sensor_id;sensor_type;location;lat;lon;timestamp;temperature;humidity
73572;DHT22;61854;48.510;-2.770;2023-08-12T00:01:34;18.80;99.90
73572;DHT22;61854;48.510;-2.770;2023-08-12T00:04:00;18.70;99.90
73572;DHT22;61854;48.510;-2.770;2023-08-12T00:06:26;18.80;99.90
73572;DHT22;61854;48.510;-2.770;2023-08-12T00:08:51;18.80;99.90
73572;DHT22;61854;48.510;-2.770;2023-08-12T00:11:17;18.70;99.90
73572;DHT22;61854;48.510;-2.770;2023-08-12T00:13:42;18.60;99.90
73572;DHT22;61854;48.510;-2.770;2023-08-12T00:16:08;18.60;99.90
73572;DHT22;61854;48.510;-2.770;2023-08-12T00:18:34;18.60;99.90
73572;DHT22;61854;48.510;-2.770;2023-08-12T00:21:06;18.50;99.90
73572;DHT22;61854;48.510;-2.770;2023-08-12T00:23:36;18.50;99.90
73572;DHT22;61854;48.510;-2.770;2023-08-12T00:26:02;18.40;99.90
73572;DHT22;61854;48.510;-2.770;2023-08-12T00:28:28;18.40;99.90
73572;DHT22;61854;48.510;-2.770;2023-08-12T00:30:53;18.40;99.90
73572;DHT22;61854;48.510;-2.770;2023-08-12T00:33:19;18.40;99.90
73572;DHT22;61854;48.510;-2.770;2023-08-12T00:35:44;18.30;99.90
73572;DHT22;61854;48.510;-2.770;2023-08-12T00:38:10;18.20;99.90
73572;DHT22;61854;48.510;-2.770;2023-08-12T00:40:36;18.20;99.90
73572;DHT22;61854;48.510;-2.770;2023-08-12T00:43:01;18.10;99.90
73572;DHT22;61854;48.510;-2.770;2023-08-12T00:45:28;18.10;99.90
73572;DHT22;61854;48.510;-2.770;2023-08-12T00:47:54;18.10;99.90
73572;DHT22;61854;48.510;-2.770;2023-08-12T00:50:20;18.10;99.90
73572;DHT22;61854;48.510;-2.770;2023-08-12T00:52:47;18.10;99.90
73572;DHT22;61854;48.510;-2.770;2023-08-12T00:55:13;17.90;99.90
73572;DHT22;61854;48.510;-2.770;2023-08-12T00:57:38;18.00;99.90
73572;DHT22;61854;48.510;-2.770;2023-08-12T01:00:05;18.00;99.90
73572;DHT22;61854;48.510;-2.770;2023-08-12T01:02:30;18.10;99.90
73572;DHT22;61854;48.510;-2.770;2023-08-12T01:04:56;18.10;99.90
73572;DHT22;61854;48.510;-2.770;2023-08-12T01:07:22;18.10;99.90
73572;DHT22;61854;48.510;-2.770;2023-08-12T01:09:48;18.00;99.90
73572;DHT22;61854;48.510;-2.770;2023-08-12T01:12:22;18.10;99.90
73572;DHT22;61854;48.510;-2.770;2023-08-12T01:17:18;17.90;99.90
73572;DHT22;61854;48.510;-2.770;2023-08-12T01:19:44;17.90;99.90
73572;DHT22;61854;48.510;-2.770;2023-08-12T01:22:12;18.00;99.90
73572;DHT22;61854;48.510;-2.770;2023-08-12T01:24:42;18.00;99.90
73572;DHT22;61854;48.510;-2.770;2023-08-12T01:27:09;18.10;99.90
73572;DHT22;61854;48.510;-2.770;2023-08-12T01:29:41;18.10;99.90
73572;DHT22;61854;48.510;-2.770;2023-08-12T01:32:29;18.10;99.90
73572;DHT22;61854;48.510;-2.770;2023-08-12T01:35:09;18.10;99.90
73572;DHT22;61854;48.510;-2.770;2023-08-12T01:37:39;18.10;99.90
73572;DHT22;61854;48.510;-2.770;2023-08-12T01:40:06;18.10;99.90
73572;DHT22;61854;48.510;-2.770;2023-08-12T01:42:35;18.20;99.90
73572;DHT22;61854;48.510;-2.770;2023-08-12T01:45:01;18.10;99.90
73572;DHT22;61854;48.510;-2.770;2023-08-12T01:47:28;18.00;99.90
73572;DHT22;61854;48.510;-2.770;2023-08-12T01:49:54;18.00;99.90
73572;DHT22;61854;48.510;-2.770;2023-08-12T01:52:20;18.00;99.90
73572;DHT22;61854;48.510;-2.770;2023-08-12T01:54:45;18.10;99.90
73572;DHT22;61854;48.510;-2.770;2023-08-12T01:57:11;18.00;99.90
73572;DHT22;61854;48.510;-2.770;2023-08-12T01:59:37;17.90;99.90
73572;DHT22;61854;48.510;-2.770;2023-08-12T02:02:03;17.90;99.90
73572;DHT22;61854;48.510;-2.770;2023-08-12T02:04:30;17.90;99.90
73572;DHT22;61854;48.510;-2.770;2023-08-12T02:06:56;17.90;99.90
73572;DHT22;61854;48.510;-2.770;2023-08-12T02:09:22;17.80;99.90
73572;DHT22;61854;48.510;-2.770;2023-08-12T02:11:49;17.80;99.90
73572;DHT22;61854;48.510;-2.770;2023-08-12T02:14:14;17.70;99.90
73572;DHT22;61854;48.510;-2.770;2023-08-12T02:16:40;17.70;99.90
73572;DHT22;61854;48.510;-2.770;2023-08-12T02:19:06;17.70;99.90
73572;DHT22;61854;48.510;-2.770;2023-08-12T02:21:32;17.70;99.90
73572;DHT22;61854;48.510;-2.770;2023-08-12T02:23:57;17.70;99.90
73572;DHT22;61854;48.510;-2.770;2023-08-12T02:26:23;17.60;99.90
73572;DHT22;61854;48.510;-2.770;2023-08-12T02:28:49;17.50;99.90
73572;DHT22;61854;48.510;-2.770;2023-08-12T02:31:16;17.60;99.90
73572;DHT22;61854;48.510;-2.770;2023-08-12T02:33:42;17.50;99.90
73572;DHT22;61854;48.510;-2.770;2023-08-12T02:36:07;17.50;99.90
73572;DHT22;61854;48.510;-2.770;2023-08-12T02:38:33;17.50;99.90
73572;DHT22;61854;48.510;-2.770;2023-08-12T02:40:59;17.50;99.90
73572;DHT22;61854;48.510;-2.770;2023-08-12T02:43:25;17.50;99.90
73572;DHT22;61854;48.510;-2.770;2023-08-12T02:45:51;17.30;99.90
73572;DHT22;61854;48.510;-2.770;2023-08-12T02:48:16;17.30;99.90
73572;DHT22;61854;48.510;-2.770;2023-08-12T02:50:45;17.30;99.90
73572;DHT22;61854;48.510;-2.770;2023-08-12T02:53:11;17.30;99.90
73572;DHT22;61854;48.510;-2.770;2023-08-12T02:55:36;17.40;99.90
73572;DHT22;61854;48.510;-2.770;2023-08-12T02:58:03;17.30;99.90
73572;DHT22;61854;48.510;-2.770;2023-08-12T03:00:29;17.20;99.90
73572;DHT22;61854;48.510;-2.770;2023-08-12T03:02:55;17.20;99.90
73572;DHT22;61854;48.510;-2.770;2023-08-12T03:05:21;17.30;99.90
73572;DHT22;61854;48.510;-2.770;2023-08-12T03:07:47;17.20;99.90
73572;DHT22;61854;48.510;-2.770;2023-08-12T03:10:13;17.10;99.90
73572;DHT22;61854;48.510;-2.770;2023-08-12T03:12:39;17.10;99.90
73572;DHT22;61854;48.510;-2.770;2023-08-12T03:15:06;17.20;99.90
73572;DHT22;61854;48.510;-2.770;2023-08-12T03:17:32;17.00;99.90
73572;DHT22;61854;48.510;-2.770;2023-08-12T03:19:58;16.90;99.90
73572;DHT22;61854;48.510;-2.770;2023-08-12T03:22:27;16.90;99.90
73572;DHT22;61854;48.510;-2.770;2023-08-12T03:24:53;16.90;99.90
73572;DHT22;61854;48.510;-2.770;2023-08-12T03:27:19;16.90;99.90
73572;DHT22;61854;48.510;-2.770;2023-08-12T03:29:44;17.00;99.90
73572;DHT22;61854;48.510;-2.770;2023-08-12T03:32:10;17.00;99.90
73572;DHT22;61854;48.510;-2.770;2023-08-12T03:34:36;16.90;99.90
73572;DHT22;61854;48.510;-2.770;2023-08-12T03:37:02;16.90;99.90
73572;DHT22;61854;48.510;-2.770;2023-08-12T03:39:27;16.90;99.90
73572;DHT22;61854;48.510;-2.770;2023-08-12T03:41:53;16.90;99.90
73572;DHT22;61854;48.510;-2.770;2023-08-12T03:44:18;16.90;99.90
73572;DHT22;61854;48.510;-2.770;2023-08-12T03:46:44;16.90;99.90
73572;DHT22;61854;48.510;-2.770;2023-08-12T03:49:10;16.90;99.90
73572;DHT22;61854;48.510;-2.770;2023-08-12T03:51:35;16.80;99.90
73572;DHT22;61854;48.510;-2.770;2023-08-12T03:54:01;16.80;99.90
73572;DHT22;61854;48.510;-2.770;2023-08-12T03:56:27;16.80;99.90
73572;DHT22;61854;48.510;-2.770;2023-08-12T03:58:52;16.80;99.90
73572;DHT22;61854;48.510;-2.770;2023-08-12T04:01:18;16.80;99.90
73572;DHT22;61854;48.510;-2.770;2023-08-12T04:03:43;16.80;99.90
73572;DHT22;61854;48.510;-2.770;2023-08-12T04:06:09;16.80;99.90
73572;DHT22;61854;48.510;-2.770;2023-08-12T04:08:35;16.80;99.90
73572;DHT22;61854;48.510;-2.770;2023-08-12T04:11:00;16.80;99.90
73572;DHT22;61854;48.510;-2.770;2023-08-12T04:13:26;16.80;99.90
73572;DHT22;61854;48.510;-2.770;2023-08-12T04:15:52;16.80;99.90
73572;DHT22;61854;48.510;-2.770;2023-08-12T04:18:21;16.80;99.90
73572;DHT22;61854;48.510;-2.770;2023-08-12T04:20:49;16.80;99.90
73572;DHT22;61854;48.510;-2.770;2023-08-12T04:23:15;16.70;99.90
73572;DHT22;61854;48.510;-2.770;2023-08-12T04:25:44;16.70;99.90
73572;DHT22;61854;48.510;-2.770;2023-08-12T04:28:11;16.70;99.90
73572;DHT22;61854;48.510;-2.770;2023-08-12T04:30:41;16.60;99.90
73572;DHT22;61854;48.510;-2.770;2023-08-12T04:33:07;16.70;99.90
73572;DHT22;61854;48.510;-2.770;2023-08-12T04:35:32;16.70;99.90
73572;DHT22;61854;48.510;-2.770;2023-08-12T04:37:58;16.70;99.90
73572;DHT22;61854;48.510;-2.770;2023-08-12T04:40:24;16.70;99.90
73572;DHT22;61854;48.510;-2.770;2023-08-12T04:42:49;16.70;99.90
73572;DHT22;61854;48.510;-2.770;2023-08-12T04:45:15;16.60;99.90
73572;DHT22;61854;48.510;-2.770;2023-08-12T04:47:41;16.60;99.90
73572;DHT22;61854;48.510;-2.770;2023-08-12T04:50:07;16.60;99.90
73572;DHT22;61854;48.510;-2.770;2023-08-12T04:52:33;16.60;99.90
73572;DHT22;61854;48.510;-2.770;2023-08-12T04:54:58;16.60;99.90
73572;DHT22;61854;48.510;-2.770;2023-08-12T04:57:25;16.60;99.90
73572;DHT22;61854;48.510;-2.770;2023-08-12T04:59:50;16.60;99.90
73572;DHT22;61854;48.510;-2.770;2023-08-12T05:02:16;16.60;99.90
73572;DHT22;61854;48.510;-2.770;2023-08-12T05:04:50;16.60;99.90
73572;DHT22;61854;48.510;-2.770;2023-08-12T05:07:16;16.60;99.90
73572;DHT22;61854;48.510;-2.770;2023-08-12T05:09:42;16.60;99.90
73572;DHT22;61854;48.510;-2.770;2023-08-12T05:12:10;16.70;99.90
73572;DHT22;61854;48.510;-2.770;2023-08-12T05:14:36;16.60;99.90
73572;DHT22;61854;48.510;-2.770;2023-08-12T05:17:02;16.60;99.90
73572;DHT22;61854;48.510;-2.770;2023-08-12T05:19:27;16.60;99.90
73572;DHT22;61854;48.510;-2.770;2023-08-12T05:21:53;16.60;99.90
73572;DHT22;61854;48.510;-2.770;2023-08-12T05:24:19;16.60;99.90
73572;DHT22;61854;48.510;-2.770;2023-08-12T05:26:44;16.60;99.90
73572;DHT22;61854;48.510;-2.770;2023-08-12T05:29:10;16.60;99.90
73572;DHT22;61854;48.510;-2.770;2023-08-12T05:31:36;16.70;99.90
73572;DHT22;61854;48.510;-2.770;2023-08-12T05:34:02;16.90;99.90
73572;DHT22;61854;48.510;-2.770;2023-08-12T05:36:28;16.90;99.90
73572;DHT22;61854;48.510;-2.770;2023-08-12T05:38:54;16.80;99.90
73572;DHT22;61854;48.510;-2.770;2023-08-12T05:41:20;16.90;99.90
73572;DHT22;61854;48.510;-2.770;2023-08-12T05:43:45;16.80;99.90
73572;DHT22;61854;48.510;-2.770;2023-08-12T05:46:11;16.80;99.90
73572;DHT22;61854;48.510;-2.770;2023-08-12T05:48:37;16.80;99.90
73572;DHT22;61854;48.510;-2.770;2023-08-12T05:51:02;16.80;99.90
73572;DHT22;61854;48.510;-2.770;2023-08-12T05:53:28;16.90;99.90
73572;DHT22;61854;48.510;-2.770;2023-08-12T05:55:53;16.90;99.90
73572;DHT22;61854;48.510;-2.770;2023-08-12T05:58:19;16.80;99.90
73572;DHT22;61854;48.510;-2.770;2023-08-12T06:00:46;17.00;99.90
73572;DHT22;61854;48.510;-2.770;2023-08-12T06:03:12;16.90;99.90
73572;DHT22;61854;48.510;-2.770;2023-08-12T06:05:39;17.00;99.90
73572;DHT22;61854;48.510;-2.770;2023-08-12T06:08:05;17.00;99.90
73572;DHT22;61854;48.510;-2.770;2023-08-12T06:10:31;17.10;99.90
73572;DHT22;61854;48.510;-2.770;2023-08-12T06:12:57;17.10;99.90
73572;DHT22;61854;48.510;-2.770;2023-08-12T06:15:22;17.20;99.90
73572;DHT22;61854;48.510;-2.770;2023-08-12T06:17:48;17.20;99.90
73572;DHT22;61854;48.510;-2.770;2023-08-12T06:20:13;17.20;99.90
73572;DHT22;61854;48.510;-2.770;2023-08-12T06:22:39;17.30;99.90
73572;DHT22;61854;48.510;-2.770;2023-08-12T06:25:05;17.30;99.90
73572;DHT22;61854;48.510;-2.770;2023-08-12T06:27:31;17.40;99.90
73572;DHT22;61854;48.510;-2.770;2023-08-12T06:29:56;17.30;99.90
73572;DHT22;61854;48.510;-2.770;2023-08-12T06:32:22;17.30;99.90
73572;DHT22;61854;48.510;-2.770;2023-08-12T06:34:48;17.50;99.90
73572;DHT22;61854;48.510;-2.770;2023-08-12T06:37:13;17.80;99.50
73572;DHT22;61854;48.510;-2.770;2023-08-12T06:39:39;18.30;98.60
73572;DHT22;61854;48.510;-2.770;2023-08-12T06:42:05;18.30;98.50
73572;DHT22;61854;48.510;-2.770;2023-08-12T06:44:30;18.30;98.20
73572;DHT22;61854;48.510;-2.770;2023-08-12T06:46:56;18.20;98.10
73572;DHT22;61854;48.510;-2.770;2023-08-12T06:49:21;18.20;97.70
73572;DHT22;61854;48.510;-2.770;2023-08-12T06:51:47;18.40;97.70
73572;DHT22;61854;48.510;-2.770;2023-08-12T06:54:13;18.40;97.30
73572;DHT22;61854;48.510;-2.770;2023-08-12T06:56:38;18.40;97.30
73572;DHT22;61854;48.510;-2.770;2023-08-12T06:59:04;18.40;97.40
73572;DHT22;61854;48.510;-2.770;2023-08-12T07:01:30;18.30;97.60
73572;DHT22;61854;48.510;-2.770;2023-08-12T07:03:55;18.30;97.70
73572;DHT22;61854;48.510;-2.770;2023-08-12T07:06:22;18.30;97.90
73572;DHT22;61854;48.510;-2.770;2023-08-12T07:08:47;18.40;97.80
73572;DHT22;61854;48.510;-2.770;2023-08-12T07:11:13;18.30;98.10
73572;DHT22;61854;48.510;-2.770;2023-08-12T07:13:39;18.50;97.80
73572;DHT22;61854;48.510;-2.770;2023-08-12T07:16:04;18.50;97.00
73572;DHT22;61854;48.510;-2.770;2023-08-12T07:18:30;18.50;97.20
73572;DHT22;61854;48.510;-2.770;2023-08-12T07:20:56;18.50;97.00
73572;DHT22;61854;48.510;-2.770;2023-08-12T07:23:23;18.50;96.80
73572;DHT22;61854;48.510;-2.770;2023-08-12T07:25:49;18.40;97.00
73572;DHT22;61854;48.510;-2.770;2023-08-12T07:28:15;18.60;96.90
73572;DHT22;61854;48.510;-2.770;2023-08-12T07:30:40;18.60;96.00
73572;DHT22;61854;48.510;-2.770;2023-08-12T07:33:06;18.60;96.60
73572;DHT22;61854;48.510;-2.770;2023-08-12T07:35:32;18.60;96.00
73572;DHT22;61854;48.510;-2.770;2023-08-12T07:37:58;18.80;95.50
73572;DHT22;61854;48.510;-2.770;2023-08-12T07:40:23;18.80;95.80
73572;DHT22;61854;48.510;-2.770;2023-08-12T07:42:49;18.90;95.40
73572;DHT22;61854;48.510;-2.770;2023-08-12T07:45:15;18.90;95.10
73572;DHT22;61854;48.510;-2.770;2023-08-12T07:47:40;18.80;95.10
73572;DHT22;61854;48.510;-2.770;2023-08-12T07:50:06;18.80;95.00
73572;DHT22;61854;48.510;-2.770;2023-08-12T07:52:32;19.00;94.60
73572;DHT22;61854;48.510;-2.770;2023-08-12T07:54:58;18.90;94.40
73572;DHT22;61854;48.510;-2.770;2023-08-12T07:57:23;19.00;94.80
73572;DHT22;61854;48.510;-2.770;2023-08-12T07:59:53;19.20;93.80
73572;DHT22;61854;48.510;-2.770;2023-08-12T08:02:21;19.10;93.70
73572;DHT22;61854;48.510;-2.770;2023-08-12T08:04:47;19.20;93.80
73572;DHT22;61854;48.510;-2.770;2023-08-12T08:07:17;19.10;94.30
73572;DHT22;61854;48.510;-2.770;2023-08-12T08:09:43;19.20;94.00
73572;DHT22;61854;48.510;-2.770;2023-08-12T08:12:10;19.20;92.40
73572;DHT22;61854;48.510;-2.770;2023-08-12T08:14:36;19.20;92.50
73572;DHT22;61854;48.510;-2.770;2023-08-12T08:17:02;19.30;92.70
73572;DHT22;61854;48.510;-2.770;2023-08-12T08:19:27;19.30;92.90
73572;DHT22;61854;48.510;-2.770;2023-08-12T08:21:53;19.40;92.00
73572;DHT22;61854;48.510;-2.770;2023-08-12T08:24:18;19.70;90.80
73572;DHT22;61854;48.510;-2.770;2023-08-12T08:26:44;19.70;90.50
73572;DHT22;61854;48.510;-2.770;2023-08-12T08:29:12;19.80;90.30
73572;DHT22;61854;48.510;-2.770;2023-08-12T08:31:38;19.90;90.30
73572;DHT22;61854;48.510;-2.770;2023-08-12T08:34:04;19.90;90.60
73572;DHT22;61854;48.510;-2.770;2023-08-12T08:36:30;20.20;90.20
73572;DHT22;61854;48.510;-2.770;2023-08-12T08:38:56;20.20;89.40
73572;DHT22;61854;48.510;-2.770;2023-08-12T08:41:22;20.40;88.60
73572;DHT22;61854;48.510;-2.770;2023-08-12T08:43:49;20.60;86.90
73572;DHT22;61854;48.510;-2.770;2023-08-12T08:46:15;20.50;86.90
73572;DHT22;61854;48.510;-2.770;2023-08-12T08:48:45;20.30;86.60
73572;DHT22;61854;48.510;-2.770;2023-08-12T08:51:12;20.30;87.30
73572;DHT22;61854;48.510;-2.770;2023-08-12T08:53:38;20.60;86.30
73572;DHT22;61854;48.510;-2.770;2023-08-12T08:56:08;20.70;86.20
73572;DHT22;61854;48.510;-2.770;2023-08-12T08:58:34;20.70;86.40
73572;DHT22;61854;48.510;-2.770;2023-08-12T09:01:00;20.70;86.00
73572;DHT22;61854;48.510;-2.770;2023-08-12T09:03:26;21.00;84.70
73572;DHT22;61854;48.510;-2.770;2023-08-12T09:05:54;21.10;83.60
73572;DHT22;61854;48.510;-2.770;2023-08-12T09:08:21;21.00;84.00
73572;DHT22;61854;48.510;-2.770;2023-08-12T09:10:51;21.10;82.30
73572;DHT22;61854;48.510;-2.770;2023-08-12T09:13:17;21.20;82.00
73572;DHT22;61854;48.510;-2.770;2023-08-12T09:15:44;21.10;81.30
73572;DHT22;61854;48.510;-2.770;2023-08-12T09:18:10;21.30;80.70
73572;DHT22;61854;48.510;-2.770;2023-08-12T09:20:36;21.40;78.90
73572;DHT22;61854;48.510;-2.770;2023-08-12T09:23:02;21.40;78.10
73572;DHT22;61854;48.510;-2.770;2023-08-12T09:25:29;21.30;79.40
73572;DHT22;61854;48.510;-2.770;2023-08-12T09:27:55;21.30;79.40
73572;DHT22;61854;48.510;-2.770;2023-08-12T09:30:23;21.10;79.40
73572;DHT22;61854;48.510;-2.770;2023-08-12T09:33:04;21.40;78.30
73572;DHT22;61854;48.510;-2.770;2023-08-12T09:35:40;21.40;78.40
73572;DHT22;61854;48.510;-2.770;2023-08-12T09:38:09;21.40;77.00
73572;DHT22;61854;48.510;-2.770;2023-08-12T09:40:36;21.40;77.90
73572;DHT22;61854;48.510;-2.770;2023-08-12T09:43:02;21.10;80.10
73572;DHT22;61854;48.510;-2.770;2023-08-12T09:45:29;21.30;79.60
73572;DHT22;61854;48.510;-2.770;2023-08-12T09:47:55;21.40;77.70
73572;DHT22;61854;48.510;-2.770;2023-08-12T09:50:22;21.40;76.10
73572;DHT22;61854;48.510;-2.770;2023-08-12T09:52:49;21.60;74.10
73572;DHT22;61854;48.510;-2.770;2023-08-12T09:55:20;21.50;72.90
73572;DHT22;61854;48.510;-2.770;2023-08-12T09:57:49;21.60;74.10
73572;DHT22;61854;48.510;-2.770;2023-08-12T10:00:16;21.80;71.30
73572;DHT22;61854;48.510;-2.770;2023-08-12T10:02:44;21.80;72.00
73572;DHT22;61854;48.510;-2.770;2023-08-12T10:05:12;21.70;72.00
73572;DHT22;61854;48.510;-2.770;2023-08-12T10:07:38;21.70;72.70
73572;DHT22;61854;48.510;-2.770;2023-08-12T10:10:05;21.70;71.90
73572;DHT22;61854;48.510;-2.770;2023-08-12T10:12:33;21.90;71.60
73572;DHT22;61854;48.510;-2.770;2023-08-12T10:15:00;22.00;71.50
73572;DHT22;61854;48.510;-2.770;2023-08-12T10:17:26;22.00;72.70
73572;DHT22;61854;48.510;-2.770;2023-08-12T10:19:56;22.00;74.30
73572;DHT22;61854;48.510;-2.770;2023-08-12T10:22:25;21.90;74.00
73572;DHT22;61854;48.510;-2.770;2023-08-12T10:24:51;21.90;73.80
73572;DHT22;61854;48.510;-2.770;2023-08-12T10:27:17;21.70;75.80
73572;DHT22;61854;48.510;-2.770;2023-08-12T10:29:43;21.90;73.90
73572;DHT22;61854;48.510;-2.770;2023-08-12T10:32:09;21.50;73.90
73572;DHT22;61854;48.510;-2.770;2023-08-12T10:34:35;21.90;73.80
73572;DHT22;61854;48.510;-2.770;2023-08-12T10:37:02;21.90;71.60
73572;DHT22;61854;48.510;-2.770;2023-08-12T10:39:31;22.00;71.20
73572;DHT22;61854;48.510;-2.770;2023-08-12T10:41:57;22.10;70.30
73572;DHT22;61854;48.510;-2.770;2023-08-12T10:44:38;22.30;69.00
73572;DHT22;61854;48.510;-2.770;2023-08-12T10:47:08;22.20;69.30
73572;DHT22;61854;48.510;-2.770;2023-08-12T10:49:38;22.60;69.20
73572;DHT22;61854;48.510;-2.770;2023-08-12T10:52:04;23.00;63.30
73572;DHT22;61854;48.510;-2.770;2023-08-12T10:54:30;22.80;64.70
73572;DHT22;61854;48.510;-2.770;2023-08-12T11:02:33;23.00;62.40
73572;DHT22;61854;48.510;-2.770;2023-08-12T11:05:09;22.90;63.00
73572;DHT22;61854;48.510;-2.770;2023-08-12T11:07:45;22.70;65.70
73572;DHT22;61854;48.510;-2.770;2023-08-12T11:10:25;22.80;66.40
73572;DHT22;61854;48.510;-2.770;2023-08-12T11:15:18;22.90;67.00
73572;DHT22;61854;48.510;-2.770;2023-08-12T11:17:46;23.00;66.30
73572;DHT22;61854;48.510;-2.770;2023-08-12T11:20:13;23.30;64.10
73572;DHT22;61854;48.510;-2.770;2023-08-12T11:22:40;23.20;64.00
73572;DHT22;61854;48.510;-2.770;2023-08-12T11:25:08;23.40;61.80
73572;DHT22;61854;48.510;-2.770;2023-08-12T11:27:42;23.30;59.00
73572;DHT22;61854;48.510;-2.770;2023-08-12T11:30:09;23.50;59.70
73572;DHT22;61854;48.510;-2.770;2023-08-12T11:32:37;23.30;60.70
73572;DHT22;61854;48.510;-2.770;2023-08-12T11:35:05;23.60;60.20
73572;DHT22;61854;48.510;-2.770;2023-08-12T11:37:31;23.40;60.60
73572;DHT22;61854;48.510;-2.770;2023-08-12T11:39:57;23.50;59.70
73572;DHT22;61854;48.510;-2.770;2023-08-12T11:42:22;23.70;59.00
73572;DHT22;61854;48.510;-2.770;2023-08-12T11:44:48;23.60;58.60
73572;DHT22;61854;48.510;-2.770;2023-08-12T11:47:14;23.40;59.50
73572;DHT22;61854;48.510;-2.770;2023-08-12T11:49:39;23.10;62.00
73572;DHT22;61854;48.510;-2.770;2023-08-12T11:52:05;23.10;62.60
73572;DHT22;61854;48.510;-2.770;2023-08-12T11:54:31;23.20;60.60
73572;DHT22;61854;48.510;-2.770;2023-08-12T11:56:58;23.30;59.10
73572;DHT22;61854;48.510;-2.770;2023-08-12T11:59:24;23.40;59.50
73572;DHT22;61854;48.510;-2.770;2023-08-12T12:01:51;23.40;59.60
73572;DHT22;61854;48.510;-2.770;2023-08-12T12:04:17;23.60;55.70
73572;DHT22;61854;48.510;-2.770;2023-08-12T12:06:46;23.50;56.10
73572;DHT22;61854;48.510;-2.770;2023-08-12T12:09:12;23.50;57.20
73572;DHT22;61854;48.510;-2.770;2023-08-12T12:11:40;23.60;57.90
73572;DHT22;61854;48.510;-2.770;2023-08-12T12:14:10;23.50;59.30
73572;DHT22;61854;48.510;-2.770;2023-08-12T12:16:38;23.60;56.90
73572;DHT22;61854;48.510;-2.770;2023-08-12T12:19:21;23.60;58.40
73572;DHT22;61854;48.510;-2.770;2023-08-12T12:21:48;23.40;59.90
73572;DHT22;61854;48.510;-2.770;2023-08-12T12:24:14;23.40;62.10
73572;DHT22;61854;48.510;-2.770;2023-08-12T12:26:40;23.40;60.60
73572;DHT22;61854;48.510;-2.770;2023-08-12T12:29:07;23.40;59.30
73572;DHT22;61854;48.510;-2.770;2023-08-12T12:31:34;23.50;59.80
73572;DHT22;61854;48.510;-2.770;2023-08-12T12:34:03;23.60;59.90
73572;DHT22;61854;48.510;-2.770;2023-08-12T12:36:39;23.70;59.30
73572;DHT22;61854;48.510;-2.770;2023-08-12T12:39:06;23.60;60.80
73572;DHT22;61854;48.510;-2.770;2023-08-12T12:41:33;23.80;60.90
73572;DHT22;61854;48.510;-2.770;2023-08-12T12:44:02;23.70;62.30
73572;DHT22;61854;48.510;-2.770;2023-08-12T12:46:28;23.70;61.00
73572;DHT22;61854;48.510;-2.770;2023-08-12T12:48:54;23.70;62.20
73572;DHT22;61854;48.510;-2.770;2023-08-12T12:51:20;23.70;60.30
73572;DHT22;61854;48.510;-2.770;2023-08-12T12:53:45;23.20;63.40
73572;DHT22;61854;48.510;-2.770;2023-08-12T12:56:11;23.40;60.40
73572;DHT22;61854;48.510;-2.770;2023-08-12T12:58:37;23.20;63.20
73572;DHT22;61854;48.510;-2.770;2023-08-12T13:01:04;22.80;68.40
73572;DHT22;61854;48.510;-2.770;2023-08-12T13:03:30;22.40;77.80
73572;DHT22;61854;48.510;-2.770;2023-08-12T13:05:56;22.00;81.20
73572;DHT22;61854;48.510;-2.770;2023-08-12T13:08:22;22.00;79.50
73572;DHT22;61854;48.510;-2.770;2023-08-12T13:10:48;21.80;79.20
73572;DHT22;61854;48.510;-2.770;2023-08-12T13:13:15;22.00;79.60
73572;DHT22;61854;48.510;-2.770;2023-08-12T13:15:43;22.40;78.10
73572;DHT22;61854;48.510;-2.770;2023-08-12T13:18:09;22.90;72.60
73572;DHT22;61854;48.510;-2.770;2023-08-12T13:20:35;23.10;71.10
73572;DHT22;61854;48.510;-2.770;2023-08-12T13:23:01;23.50;66.60
73572;DHT22;61854;48.510;-2.770;2023-08-12T13:25:32;23.30;65.20
73572;DHT22;61854;48.510;-2.770;2023-08-12T13:28:02;23.30;64.10
73572;DHT22;61854;48.510;-2.770;2023-08-12T13:30:28;23.60;63.70
73572;DHT22;61854;48.510;-2.770;2023-08-12T13:32:55;24.00;60.70
73572;DHT22;61854;48.510;-2.770;2023-08-12T13:35:22;23.90;60.80
73572;DHT22;61854;48.510;-2.770;2023-08-12T13:37:49;24.00;59.90
73572;DHT22;61854;48.510;-2.770;2023-08-12T13:40:15;23.80;61.40
73572;DHT22;61854;48.510;-2.770;2023-08-12T13:42:41;23.80;62.20
73572;DHT22;61854;48.510;-2.770;2023-08-12T13:45:07;23.50;63.80
73572;DHT22;61854;48.510;-2.770;2023-08-12T13:47:36;23.60;64.20
73572;DHT22;61854;48.510;-2.770;2023-08-12T13:50:02;23.80;63.40
73572;DHT22;61854;48.510;-2.770;2023-08-12T13:52:27;23.60;64.10
73572;DHT22;61854;48.510;-2.770;2023-08-12T13:54:53;23.40;68.30
73572;DHT22;61854;48.510;-2.770;2023-08-12T13:57:19;23.40;64.60
73572;DHT22;61854;48.510;-2.770;2023-08-12T13:59:44;23.30;67.30
73572;DHT22;61854;48.510;-2.770;2023-08-12T14:02:10;23.20;67.40
73572;DHT22;61854;48.510;-2.770;2023-08-12T14:04:36;23.20;67.90
73572;DHT22;61854;48.510;-2.770;2023-08-12T14:07:03;23.40;66.90
73572;DHT22;61854;48.510;-2.770;2023-08-12T14:09:29;23.30;68.00
73572;DHT22;61854;48.510;-2.770;2023-08-12T14:11:55;23.20;69.10
73572;DHT22;61854;48.510;-2.770;2023-08-12T14:14:21;23.10;70.10
73572;DHT22;61854;48.510;-2.770;2023-08-12T14:16:46;23.20;66.80
73572;DHT22;61854;48.510;-2.770;2023-08-12T14:19:12;23.00;68.50
73572;DHT22;61854;48.510;-2.770;2023-08-12T14:21:42;22.60;70.50
73572;DHT22;61854;48.510;-2.770;2023-08-12T14:24:07;23.10;69.70
73572;DHT22;61854;48.510;-2.770;2023-08-12T14:26:34;23.30;67.80
73572;DHT22;61854;48.510;-2.770;2023-08-12T14:29:00;23.40;66.90
73572;DHT22;61854;48.510;-2.770;2023-08-12T14:31:26;23.50;65.20
73572;DHT22;61854;48.510;-2.770;2023-08-12T14:33:51;23.30;65.90
73572;DHT22;61854;48.510;-2.770;2023-08-12T14:36:17;23.30;66.60
73572;DHT22;61854;48.510;-2.770;2023-08-12T14:38:42;23.50;66.90
73572;DHT22;61854;48.510;-2.770;2023-08-12T14:41:08;23.30;67.20
73572;DHT22;61854;48.510;-2.770;2023-08-12T14:43:34;23.30;68.10
73572;DHT22;61854;48.510;-2.770;2023-08-12T14:45:59;23.60;67.20
73572;DHT22;61854;48.510;-2.770;2023-08-12T14:48:25;23.80;66.40
73572;DHT22;61854;48.510;-2.770;2023-08-12T14:50:50;24.30;63.40
73572;DHT22;61854;48.510;-2.770;2023-08-12T14:53:16;24.50;61.00
73572;DHT22;61854;48.510;-2.770;2023-08-12T14:55:42;24.30;61.20
73572;DHT22;61854;48.510;-2.770;2023-08-12T14:58:07;24.00;62.80
73572;DHT22;61854;48.510;-2.770;2023-08-12T15:00:33;23.50;66.70
73572;DHT22;61854;48.510;-2.770;2023-08-12T15:02:59;23.50;67.00
73572;DHT22;61854;48.510;-2.770;2023-08-12T15:05:25;23.20;67.50
73572;DHT22;61854;48.510;-2.770;2023-08-12T15:07:50;23.10;69.00
73572;DHT22;61854;48.510;-2.770;2023-08-12T15:10:16;22.90;71.40
73572;DHT22;61854;48.510;-2.770;2023-08-12T15:12:42;22.50;73.20
73572;DHT22;61854;48.510;-2.770;2023-08-12T15:15:08;22.30;77.10
73572;DHT22;61854;48.510;-2.770;2023-08-12T15:17:33;22.20;86.10
73572;DHT22;61854;48.510;-2.770;2023-08-12T15:19:59;21.80;88.90
73572;DHT22;61854;48.510;-2.770;2023-08-12T15:22:25;21.50;88.60